sensor_id;sensor_type;location;lat;lon;timestamp;noise_LAeq;noise_LA_min;noise_LA_max;noise_LA01;noise_LA95
45964;Laerm;31671;48.092;11.842;2023-07-28T00:02:18;29.00;27.75;30.33;;
45964;Laerm;31671;48.092;11.842;2023-07-28T00:04:44;29.07;27.46;47.21;;
45964;Laerm;31671;48.092;11.842;2023-07-28T00:07:09;29.00;27.70;37.54;;
45964;Laerm;31671;48.092;11.842;2023-07-28T00:09:35;29.75;27.52;34.25;;
45964;Laerm;31671;48.092;11.842;2023-07-28T00:12:01;29.00;27.67;30.34;;
45964;Laerm;31671;48.092;11.842;2023-07-28T00:14:27;29.23;27.88;36.10;;
45964;Laerm;31671;48.092;11.842;2023-07-28T00:16:53;29.01;27.56;33.63;;
45964;Laerm;31671;48.092;11.842;2023-07-28T00:19:19;28.99;27.73;31.16;;
45964;Laerm;31671;48.092;11.842;2023-07-28T00:21:45;28.96;27.64;30.27;;
45964;Laerm;31671;48.092;11.842;2023-07-28T00:24:10;29.17;27.49;32.65;;
45964;Laerm;31671;48.092;11.842;2023-07-28T00:26:36;29.23;27.37;33.62;;
45964;Laerm;31671;48.092;11.842;2023-07-28T00:29:02;28.94;27.68;37.26;;
45964;Laerm;31671;48.092;11.842;2023-07-28T00:31:28;30.19;27.74;35.01;;
45964;Laerm;31671;48.092;11.842;2023-07-28T00:33:54;28.94;27.31;30.16;;
45964;Laerm;31671;48.092;11.842;2023-07-28T00:36:19;30.36;27.87;35.97;;
45964;Laerm;31671;48.092;11.842;2023-07-28T00:38:45;29.75;27.50;35.73;;
45964;Laerm;31671;48.092;11.842;2023-07-28T00:41:11;29.09;27.57;32.18;;
45964;Laerm;31671;48.092;11.842;2023-07-28T00:43:37;28.93;27.69;30.05;;
45964;Laerm;31671;48.092;11.842;2023-07-28T00:46:02;28.95;27.70;30.18;;
45964;Laerm;31671;48.092;11.842;2023-07-28T00:48:28;28.95;27.59;30.15;;
45964;Laerm;31671;48.092;11.842;2023-07-28T00:50:54;29.01;27.50;30.58;;
45964;Laerm;31671;48.092;11.842;2023-07-28T00:53:20;28.97;27.67;30.22;;
45964;Laerm;31671;48.092;11.842;2023-07-28T00:55:47;28.97;27.46;30.31;;
45964;Laerm;31671;48.092;11.842;2023-07-28T00:58:13;28.99;27.72;31.44;;
45964;Laerm;31671;48.092;11.842;2023-07-28T01:00:39;28.99;27.68;30.21;;
45964;Laerm;31671;48.092;11.842;2023-07-28T01:03:04;28.99;27.75;30.12;;
45964;Laerm;31671;48.092;11.842;2023-07-28T01:05:32;28.93;27.58;30.57;;
45964;Laerm;31671;48.092;11.842;2023-07-28T01:08:01;28.98;27.46;30.40;;
45964;Laerm;31671;48.092;11.842;2023-07-28T01:10:30;28.98;27.75;30.38;;
45964;Laerm;31671;48.092;11.842;2023-07-28T01:12:56;28.95;27.56;30.24;;
45964;Laerm;31671;48.092;11.842;2023-07-28T01:15:22;28.96;27.69;30.22;;
45964;Laerm;31671;48.092;11.842;2023-07-28T01:17:47;29.02;27.58;31.60;;
45964;Laerm;31671;48.092;11.842;2023-07-28T01:20:13;29.01;27.65;31.47;;
45964;Laerm;31671;48.092;11.842;2023-07-28T01:22:51;28.95;27.57;30.12;;
45964;Laerm;31671;48.092;11.842;2023-07-28T01:25:32;28.95;27.63;30.06;;
45964;Laerm;31671;48.092;11.842;2023-07-28T01:28:00;28.95;27.44;30.27;;
45964;Laerm;31671;48.092;11.842;2023-07-28T01:30:27;28.93;27.61;30.17;;
45964;Laerm;31671;48.092;11.842;2023-07-28T01:32:56;28.99;27.81;30.85;;
45964;Laerm;31671;48.092;11.842;2023-07-28T01:35:22;28.96;27.72;31.13;;
45964;Laerm;31671;48.092;11.842;2023-07-28T01:37:48;28.97;27.60;30.37;;
45964;Laerm;31671;48.092;11.842;2023-07-28T01:40:13;28.95;27.62;30.02;;
45964;Laerm;31671;48.092;11.842;2023-07-28T01:42:39;28.94;27.57;30.17;;
45964;Laerm;31671;48.092;11.842;2023-07-28T01:45:05;28.92;27.28;30.09;;
45964;Laerm;31671;48.092;11.842;2023-07-28T01:47:30;28.99;27.63;31.65;;
45964;Laerm;31671;48.092;11.842;2023-07-28T01:49:56;29.00;27.72;30.45;;
45964;Laerm;31671;48.092;11.842;2023-07-28T01:52:22;28.99;27.49;31.11;;
45964;Laerm;31671;48.092;11.842;2023-07-28T01:54:47;28.96;27.64;30.21;;
45964;Laerm;31671;48.092;11.842;2023-07-28T01:57:13;28.98;27.50;31.05;;
45964;Laerm;31671;48.092;11.842;2023-07-28T01:59:39;28.99;27.63;30.67;;
45964;Laerm;31671;48.092;11.842;2023-07-28T02:02:05;29.01;27.71;31.85;;
45964;Laerm;31671;48.092;11.842;2023-07-28T02:04:30;29.03;27.51;30.27;;
45964;Laerm;31671;48.092;11.842;2023-07-28T02:06:56;29.11;27.48;35.33;;
45964;Laerm;31671;48.092;11.842;2023-07-28T02:09:22;29.04;27.63;30.32;;
45964;Laerm;31671;48.092;11.842;2023-07-28T02:11:47;29.03;27.66;30.23;;
45964;Laerm;31671;48.092;11.842;2023-07-28T02:14:13;29.10;27.56;31.20;;
45964;Laerm;31671;48.092;11.842;2023-07-28T02:16:39;29.09;27.76;34.73;;
45964;Laerm;31671;48.092;11.842;2023-07-28T02:19:04;29.01;27.50;30.23;;
45964;Laerm;31671;48.092;11.842;2023-07-28T02:21:30;29.00;27.61;30.24;;
45964;Laerm;31671;48.092;11.842;2023-07-28T02:23:56;29.04;27.61;30.36;;
45964;Laerm;31671;48.092;11.842;2023-07-28T02:26:21;28.95;27.51;30.18;;
45964;Laerm;31671;48.092;11.842;2023-07-28T02:28:47;29.05;27.79;30.51;;
45964;Laerm;31671;48.092;11.842;2023-07-28T02:31:14;29.03;27.73;32.16;;
45964;Laerm;31671;48.092;11.842;2023-07-28T02:33:39;29.00;27.59;30.45;;
45964;Laerm;31671;48.092;11.842;2023-07-28T02:36:05;29.50;27.57;35.73;;
45964;Laerm;31671;48.092;11.842;2023-07-28T02:38:31;28.98;27.72;30.78;;
45964;Laerm;31671;48.092;11.842;2023-07-28T02:40:56;28.98;27.55;30.32;;
45964;Laerm;31671;48.092;11.842;2023-07-28T02:43:22;29.09;27.50;30.49;;
45964;Laerm;31671;48.092;11.842;2023-07-28T02:45:48;28.95;27.46;30.72;;
45964;Laerm;31671;48.092;11.842;2023-07-28T02:48:14;29.25;27.37;32.09;;
45964;Laerm;31671;48.092;11.842;2023-07-28T02:50:44;29.78;27.69;34.28;;
45964;Laerm;31671;48.092;11.842;2023-07-28T02:53:10;28.96;27.66;30.35;;
45964;Laerm;31671;48.092;11.842;2023-07-28T02:55:40;28.93;27.62;31.77;;
45964;Laerm;31671;48.092;11.842;2023-07-28T02:58:06;29.54;27.80;33.94;;
45964;Laerm;31671;48.092;11.842;2023-07-28T03:00:31;28.93;27.61;30.87;;
45964;Laerm;31671;48.092;11.842;2023-07-28T03:02:57;28.95;27.42;30.63;;
45964;Laerm;31671;48.092;11.842;2023-07-28T03:05:23;29.00;27.70;31.83;;
45964;Laerm;31671;48.092;11.842;2023-07-28T03:08:04;28.91;27.56;30.22;;
45964;Laerm;31671;48.092;11.842;2023-07-28T03:10:30;29.21;27.75;31.51;;
45964;Laerm;31671;48.092;11.842;2023-07-28T03:12:56;29.59;27.33;34.82;;
45964;Laerm;31671;48.092;11.842;2023-07-28T03:15:21;29.28;27.46;31.52;;
45964;Laerm;31671;48.092;11.842;2023-07-28T03:17:48;29.50;27.77;33.44;;
45964;Laerm;31671;48.092;11.842;2023-07-28T03:20:13;30.20;27.81;37.07;;
45964;Laerm;31671;48.092;11.842;2023-07-28T03:22:39;29.97;27.74;39.25;;
45964;Laerm;31671;48.092;11.842;2023-07-28T03:25:05;28.97;27.52;31.55;;
45964;Laerm;31671;48.092;11.842;2023-07-28T03:27:31;29.12;27.52;34.17;;
45964;Laerm;31671;48.092;11.842;2023-07-28T03:29:57;28.95;27.81;30.60;;
45964;Laerm;31671;48.092;11.842;2023-07-28T03:32:22;29.53;27.63;32.86;;
45964;Laerm;31671;48.092;11.842;2023-07-28T03:34:48;29.72;27.47;35.37;;
45964;Laerm;31671;48.092;11.842;2023-07-28T03:37:18;29.00;27.43;30.62;;
45964;Laerm;31671;48.092;11.842;2023-07-28T03:39:43;30.03;27.64;37.34;;
45964;Laerm;31671;48.092;11.842;2023-07-28T03:42:09;29.10;27.58;31.32;;
45964;Laerm;31671;48.092;11.842;2023-07-28T03:44:35;29.01;27.46;30.74;;
45964;Laerm;31671;48.092;11.842;2023-07-28T03:47:00;29.42;27.65;35.51;;
45964;Laerm;31671;48.092;11.842;2023-07-28T03:49:26;28.98;27.57;31.59;;
45964;Laerm;31671;48.092;11.842;2023-07-28T03:51:52;28.99;27.72;31.48;;
45964;Laerm;31671;48.092;11.842;2023-07-28T03:54:17;28.98;27.58;31.51;;
45964;Laerm;31671;48.092;11.842;2023-07-28T03:56:43;29.13;27.66;32.39;;
45964;Laerm;31671;48.092;11.842;2023-07-28T03:59:09;29.01;27.63;30.51;;
45964;Laerm;31671;48.092;11.842;2023-07-28T04:01:34;29.23;27.86;37.66;;
45964;Laerm;31671;48.092;11.842;2023-07-28T04:04:00;29.17;27.80;35.76;;
45964;Laerm;31671;48.092;11.842;2023-07-28T04:06:45;29.40;27.50;37.93;;
45964;Laerm;31671;48.092;11.842;2023-07-28T04:09:12;29.61;27.75;37.25;;
45964;Laerm;31671;48.092;11.842;2023-07-28T04:11:38;29.14;27.66;30.59;;
45964;Laerm;31671;48.092;11.842;2023-07-28T04:14:04;29.19;27.66;38.96;;
45964;Laerm;31671;48.092;11.842;2023-07-28T04:16:29;29.23;27.80;37.66;;
45964;Laerm;31671;48.092;11.842;2023-07-28T04:18:55;29.53;27.60;36.62;;
45964;Laerm;31671;48.092;11.842;2023-07-28T04:21:21;29.11;27.52;38.59;;
45964;Laerm;31671;48.092;11.842;2023-07-28T04:23:47;29.95;27.68;40.06;;
45964;Laerm;31671;48.092;11.842;2023-07-28T04:26:13;31.11;27.89;39.90;;
45964;Laerm;31671;48.092;11.842;2023-07-28T04:28:39;31.54;27.97;42.38;;
45964;Laerm;31671;48.092;11.842;2023-07-28T04:31:05;29.77;27.88;39.82;;
45964;Laerm;31671;48.092;11.842;2023-07-28T04:33:49;31.12;27.82;53.79;;
45964;Laerm;31671;48.092;11.842;2023-07-28T04:36:15;30.11;27.96;39.48;;
45964;Laerm;31671;48.092;11.842;2023-07-28T04:38:41;29.58;27.85;37.81;;
45964;Laerm;31671;48.092;11.842;2023-07-28T04:41:07;29.26;27.76;33.92;;
45964;Laerm;31671;48.092;11.842;2023-07-28T04:43:50;29.43;27.92;38.62;;
45964;Laerm;31671;48.092;11.842;2023-07-28T04:46:15;29.22;27.91;34.74;;
45964;Laerm;31671;48.092;11.842;2023-07-28T04:48:43;29.61;27.83;34.34;;
45964;Laerm;31671;48.092;11.842;2023-07-28T04:51:27;29.31;27.48;31.75;;
45964;Laerm;31671;48.092;11.842;2023-07-28T04:54:13;29.05;27.45;38.30;;
45964;Laerm;31671;48.092;11.842;2023-07-28T04:56:39;29.11;27.60;32.64;;
45964;Laerm;31671;48.092;11.842;2023-07-28T04:59:04;29.16;27.82;30.82;;
45964;Laerm;31671;48.092;11.842;2023-07-28T05:01:30;29.30;27.88;33.27;;
45964;Laerm;31671;48.092;11.842;2023-07-28T05:03:56;29.33;27.73;31.66;;
45964;Laerm;31671;48.092;11.842;2023-07-28T05:06:24;29.69;27.88;37.51;;
45964;Laerm;31671;48.092;11.842;2023-07-28T05:08:50;29.25;27.80;37.02;;
45964;Laerm;31671;48.092;11.842;2023-07-28T05:11:22;29.26;28.03;33.76;;
45964;Laerm;31671;48.092;11.842;2023-07-28T05:13:48;29.35;27.95;34.38;;
45964;Laerm;31671;48.092;11.842;2023-07-28T05:16:13;29.47;27.69;41.77;;
45964;Laerm;31671;48.092;11.842;2023-07-28T05:19:14;29.96;27.76;41.14;;
45964;Laerm;31671;48.092;11.842;2023-07-28T05:21:59;29.59;27.65;36.33;;
45964;Laerm;31671;48.092;11.842;2023-07-28T05:24:33;30.38;27.74;41.33;;
45964;Laerm;31671;48.092;11.842;2023-07-28T05:26:59;30.97;27.58;40.67;;
45964;Laerm;31671;48.092;11.842;2023-07-28T05:29:25;29.42;27.51;41.11;;
45964;Laerm;31671;48.092;11.842;2023-07-28T05:31:53;29.19;27.66;31.88;;
45964;Laerm;31671;48.092;11.842;2023-07-28T05:34:25;29.24;27.87;31.41;;
45964;Laerm;31671;48.092;11.842;2023-07-28T05:36:51;29.40;27.72;34.88;;
45964;Laerm;31671;48.092;11.842;2023-07-28T05:39:17;29.49;27.44;32.89;;
45964;Laerm;31671;48.092;11.842;2023-07-28T05:41:44;29.17;27.53;32.75;;
45964;Laerm;31671;48.092;11.842;2023-07-28T05:44:11;29.38;27.74;35.67;;
45964;Laerm;31671;48.092;11.842;2023-07-28T05:46:37;29.14;27.69;31.07;;
45964;Laerm;31671;48.092;11.842;2023-07-28T05:49:03;29.09;27.70;30.87;;
45964;Laerm;31671;48.092;11.842;2023-07-28T05:51:29;30.67;27.85;50.43;;
45964;Laerm;31671;48.092;11.842;2023-07-28T05:53:54;29.47;27.76;44.07;;
45964;Laerm;31671;48.092;11.842;2023-07-28T05:56:20;29.18;27.81;31.27;;
45964;Laerm;31671;48.092;11.842;2023-07-28T05:58:46;29.18;27.46;31.28;;
45964;Laerm;31671;48.092;11.842;2023-07-28T06:01:12;29.08;27.65;36.60;;
45964;Laerm;31671;48.092;11.842;2023-07-28T06:03:57;29.18;27.63;38.29;;
45964;Laerm;31671;48.092;11.842;2023-07-28T06:06:23;29.22;27.36;37.99;;
45964;Laerm;31671;48.092;11.842;2023-07-28T06:08:49;29.12;27.49;37.38;;
45964;Laerm;31671;48.092;11.842;2023-07-28T06:11:15;29.18;27.45;35.13;;
45964;Laerm;31671;48.092;11.842;2023-07-28T06:13:40;29.04;27.75;33.27;;
45964;Laerm;31671;48.092;11.842;2023-07-28T06:16:06;29.10;27.79;30.73;;
45964;Laerm;31671;48.092;11.842;2023-07-28T06:18:32;29.17;27.71;32.48;;
45964;Laerm;31671;48.092;11.842;2023-07-28T06:21:12;29.68;27.60;51.73;;
45964;Laerm;31671;48.092;11.842;2023-07-28T06:23:37;29.19;27.81;39.35;;
45964;Laerm;31671;48.092;11.842;2023-07-28T06:26:03;29.43;27.54;38.30;;
45964;Laerm;31671;48.092;11.842;2023-07-28T06:28:29;29.15;27.65;38.40;;
45964;Laerm;31671;48.092;11.842;2023-07-28T06:30:55;29.81;27.97;43.26;;
45964;Laerm;31671;48.092;11.842;2023-07-28T06:33:22;29.44;27.86;35.18;;
45964;Laerm;31671;48.092;11.842;2023-07-28T06:35:48;29.49;27.64;38.55;;
45964;Laerm;31671;48.092;11.842;2023-07-28T06:38:13;29.85;28.08;49.39;;
45964;Laerm;31671;48.092;11.842;2023-07-28T06:40:39;29.39;28.01;32.87;;
45964;Laerm;31671;48.092;11.842;2023-07-28T06:43:05;29.45;27.72;37.82;;
45964;Laerm;31671;48.092;11.842;2023-07-28T06:45:30;29.59;28.27;32.55;;
45964;Laerm;31671;48.092;11.842;2023-07-28T06:47:56;29.59;28.22;42.17;;
45964;Laerm;31671;48.092;11.842;2023-07-28T06:50:22;29.63;28.02;34.67;;
45964;Laerm;31671;48.092;11.842;2023-07-28T06:52:47;29.47;28.09;35.38;;
45964;Laerm;31671;48.092;11.842;2023-07-28T06:55:14;29.40;27.99;34.34;;
45964;Laerm;31671;48.092;11.842;2023-07-28T06:57:40;29.98;28.22;37.80;;
45964;Laerm;31671;48.092;11.842;2023-07-28T07:00:06;29.59;28.27;38.76;;
45964;Laerm;31671;48.092;11.842;2023-07-28T07:02:32;30.23;28.33;47.62;;
45964;Laerm;31671;48.092;11.842;2023-07-28T07:04:57;30.29;28.42;46.98;;
45964;Laerm;31671;48.092;11.842;2023-07-28T07:07:23;29.89;28.33;41.61;;
45964;Laerm;31671;48.092;11.842;2023-07-28T07:09:49;36.02;28.61;64.03;;
45964;Laerm;31671;48.092;11.842;2023-07-28T07:12:14;31.40;28.34;42.93;;
45964;Laerm;31671;48.092;11.842;2023-07-28T07:14:40;30.34;28.40;44.76;;
45964;Laerm;31671;48.092;11.842;2023-07-28T07:17:06;30.00;28.66;37.44;;
45964;Laerm;31671;48.092;11.842;2023-07-28T07:19:32;30.07;28.43;40.29;;
45964;Laerm;31671;48.092;11.842;2023-07-28T07:21:57;30.02;28.79;37.56;;
45964;Laerm;31671;48.092;11.842;2023-07-28T07:24:23;30.28;28.61;35.32;;
45964;Laerm;31671;48.092;11.842;2023-07-28T07:26:49;31.33;28.49;55.88;;
45964;Laerm;31671;48.092;11.842;2023-07-28T07:29:14;30.00;28.55;42.34;;
45964;Laerm;31671;48.092;11.842;2023-07-28T07:31:40;29.71;28.34;38.32;;
45964;Laerm;31671;48.092;11.842;2023-07-28T07:34:06;30.17;28.07;47.61;;
45964;Laerm;31671;48.092;11.842;2023-07-28T07:36:32;30.37;28.51;49.31;;
45964;Laerm;31671;48.092;11.842;2023-07-28T07:38:57;31.30;28.39;53.19;;
45964;Laerm;31671;48.092;11.842;2023-07-28T07:41:23;30.75;28.53;49.46;;
45964;Laerm;31671;48.092;11.842;2023-07-28T07:43:49;30.81;28.57;47.83;;
45964;Laerm;31671;48.092;11.842;2023-07-28T07:46:17;30.29;28.65;45.86;;
45964;Laerm;31671;48.092;11.842;2023-07-28T07:48:42;34.37;28.59;61.25;;
45964;Laerm;31671;48.092;11.842;2023-07-28T07:51:08;31.25;28.62;53.35;;
45964;Laerm;31671;48.092;11.842;2023-07-28T07:53:34;30.05;28.73;37.77;;
45964;Laerm;31671;48.092;11.842;2023-07-28T07:56:00;29.90;28.72;37.62;;
45964;Laerm;31671;48.092;11.842;2023-07-28T07:58:26;30.11;28.74;38.10;;
45964;Laerm;31671;48.092;11.842;2023-07-28T08:00:52;30.12;28.69;43.96;;
45964;Laerm;31671;48.092;11.842;2023-07-28T08:03:17;29.86;28.43;37.41;;
45964;Laerm;31671;48.092;11.842;2023-07-28T08:05:43;29.74;28.25;36.29;;
45964;Laerm;31671;48.092;11.842;2023-07-28T08:08:09;30.31;28.21;47.89;;
45964;Laerm;31671;48.092;11.842;2023-07-28T08:10:34;29.77;28.14;34.82;;
45964;Laerm;31671;48.092;11.842;2023-07-28T08:13:00;30.01;28.05;41.65;;
45964;Laerm;31671;48.092;11.842;2023-07-28T08:15:26;30.17;28.48;41.01;;
45964;Laerm;31671;48.092;11.842;2023-07-28T08:17:51;30.00;28.43;38.80;;
45964;Laerm;31671;48.092;11.842;2023-07-28T08:20:17;29.89;28.37;39.41;;
45964;Laerm;31671;48.092;11.842;2023-07-28T08:22:43;29.95;28.67;46.08;;
45964;Laerm;31671;48.092;11.842;2023-07-28T08:25:09;30.22;28.58;34.08;;
45964;Laerm;31671;48.092;11.842;2023-07-28T08:27:34;29.90;28.62;36.18;;
45964;Laerm;31671;48.092;11.842;2023-07-28T08:30:00;29.96;28.57;38.43;;
45964;Laerm;31671;48.092;11.842;2023-07-28T08:32:26;31.04;28.44;46.89;;
45964;Laerm;31671;48.092;11.842;2023-07-28T08:34:51;29.72;28.26;36.81;;
45964;Laerm;31671;48.092;11.842;2023-07-28T08:37:17;29.52;28.20;37.31;;
45964;Laerm;31671;48.092;11.842;2023-07-28T08:39:43;29.63;28.09;39.83;;
45964;Laerm;31671;48.092;11.842;2023-07-28T08:42:08;30.35;28.19;52.84;;
45964;Laerm;31671;48.092;11.842;2023-07-28T08:44:34;29.95;28.14;48.52;;
45964;Laerm;31671;48.092;11.842;2023-07-28T08:47:00;29.67;28.16;44.39;;
45964;Laerm;31671;48.092;11.842;2023-07-28T08:49:26;29.80;28.31;34.11;;
45964;Laerm;31671;48.092;11.842;2023-07-28T08:51:52;29.53;28.04;37.90;;
45964;Laerm;31671;48.092;11.842;2023-07-28T08:54:17;29.59;28.13;38.74;;
45964;Laerm;31671;48.092;11.842;2023-07-28T08:56:43;29.80;28.16;46.37;;
45964;Laerm;31671;48.092;11.842;2023-07-28T08:59:09;29.94;28.25;48.16;;
45964;Laerm;31671;48.092;11.842;2023-07-28T09:01:41;29.76;28.23;35.85;;
45964;Laerm;31671;48.092;11.842;2023-07-28T09:04:10;31.47;28.61;45.52;;
45964;Laerm;31671;48.092;11.842;2023-07-28T09:06:35;29.90;28.37;36.98;;
45964;Laerm;31671;48.092;11.842;2023-07-28T09:09:01;29.89;28.34;48.02;;
45964;Laerm;31671;48.092;11.842;2023-07-28T09:11:27;30.23;28.54;50.36;;
45964;Laerm;31671;48.092;11.842;2023-07-28T09:13:53;29.87;28.40;33.90;;
45964;Laerm;31671;48.092;11.842;2023-07-28T09:16:20;30.13;28.42;45.95;;
45964;Laerm;31671;48.092;11.842;2023-07-28T09:18:46;30.45;28.27;41.15;;
45964;Laerm;31671;48.092;11.842;2023-07-28T09:21:18;37.12;28.36;57.29;;
45964;Laerm;31671;48.092;11.842;2023-07-28T09:23:43;32.96;28.60;55.78;;
45964;Laerm;31671;48.092;11.842;2023-07-28T09:26:09;30.28;28.58;42.36;;
45964;Laerm;31671;48.092;11.842;2023-07-28T09:28:38;30.01;28.55;39.88;;
45964;Laerm;31671;48.092;11.842;2023-07-28T09:31:04;32.08;28.48;53.48;;
45964;Laerm;31671;48.092;11.842;2023-07-28T09:33:30;31.02;28.39;49.70;;
45964;Laerm;31671;48.092;11.842;2023-07-28T09:35:56;30.75;28.61;48.24;;
45964;Laerm;31671;48.092;11.842;2023-07-28T09:38:22;38.10;28.57;62.18;;
45964;Laerm;31671;48.092;11.842;2023-07-28T09:40:49;31.28;28.60;51.88;;
45964;Laerm;31671;48.092;11.842;2023-07-28T09:43:15;31.73;28.56;51.71;;
45964;Laerm;31671;48.092;11.842;2023-07-28T09:45:42;30.39;28.71;44.07;;
45964;Laerm;31671;48.092;11.842;2023-07-28T09:48:09;32.12;28.64;53.05;;
45964;Laerm;31671;48.092;11.842;2023-07-28T09:50:36;33.39;28.46;53.40;;
45964;Laerm;31671;48.092;11.842;2023-07-28T09:53:02;31.41;28.27;49.43;;
45964;Laerm;31671;48.092;11.842;2023-07-28T09:55:29;32.13;28.66;56.64;;
45964;Laerm;31671;48.092;11.842;2023-07-28T09:57:55;30.53;28.63;49.71;;
45964;Laerm;31671;48.092;11.842;2023-07-28T10:00:21;37.67;28.31;60.67;;
45964;Laerm;31671;48.092;11.842;2023-07-28T10:02:47;33.48;28.71;59.29;;
45964;Laerm;31671;48.092;11.842;2023-07-28T10:05:13;35.75;28.46;59.82;;
45964;Laerm;31671;48.092;11.842;2023-07-28T10:07:40;30.20;28.50;40.94;;
45964;Laerm;31671;48.092;11.842;2023-07-28T10:10:06;30.03;28.49;43.10;;
45964;Laerm;31671;48.092;11.842;2023-07-28T10:12:42;32.56;28.65;54.37;;
45964;Laerm;31671;48.092;11.842;2023-07-28T10:15:08;29.94;28.42;34.62;;
45964;Laerm;31671;48.092;11.842;2023-07-28T10:17:37;38.84;28.65;60.23;;
45964;Laerm;31671;48.092;11.842;2023-07-28T10:20:03;32.31;28.71;56.02;;
45964;Laerm;31671;48.092;11.842;2023-07-28T10:22:29;30.05;28.38;43.71;;
45964;Laerm;31671;48.092;11.842;2023-07-28T10:24:55;33.27;28.25;55.69;;
45964;Laerm;31671;48.092;11.842;2023-07-28T10:27:37;30.45;28.48;41.30;;
45964;Laerm;31671;48.092;11.842;2023-07-28T10:30:03;32.89;28.46;58.89;;
45964;Laerm;31671;48.092;11.842;2023-07-28T10:32:29;32.40;28.70;53.66;;
45964;Laerm;31671;48.092;11.842;2023-07-28T10:35:08;40.74;28.57;64.84;;
45964;Laerm;31671;48.092;11.842;2023-07-28T10:37:35;30.33;28.66;44.31;;
45964;Laerm;31671;48.092;11.842;2023-07-28T10:42:45;31.67;28.56;55.26;;
45964;Laerm;31671;48.092;11.842;2023-07-28T10:45:10;37.43;28.46;61.11;;
45964;Laerm;31671;48.092;11.842;2023-07-28T10:47:36;31.79;28.33;52.31;;
45964;Laerm;31671;48.092;11.842;2023-07-28T10:50:02;30.16;28.43;44.30;;
45964;Laerm;31671;48.092;11.842;2023-07-28T10:52:28;30.36;28.73;44.07;;
45964;Laerm;31671;48.092;11.842;2023-07-28T10:54:54;39.47;28.70;61.28;;
45964;Laerm;31671;48.092;11.842;2023-07-28T10:57:19;45.96;28.72;68.60;;
45964;Laerm;31671;48.092;11.842;2023-07-28T10:59:45;30.18;28.49;36.33;;
45964;Laerm;31671;48.092;11.842;2023-07-28T11:02:14;30.29;28.66;45.57;;
45964;Laerm;31671;48.092;11.842;2023-07-28T11:04:45;30.12;28.63;37.75;;
45964;Laerm;31671;48.092;11.842;2023-07-28T11:07:11;33.86;28.66;57.86;;
45964;Laerm;31671;48.092;11.842;2023-07-28T11:09:36;33.29;28.45;57.68;;
45964;Laerm;31671;48.092;11.842;2023-07-28T11:12:02;38.51;28.66;64.58;;
45964;Laerm;31671;48.092;11.842;2023-07-28T11:14:28;34.26;28.70;58.44;;
45964;Laerm;31671;48.092;11.842;2023-07-28T11:16:54;31.49;28.60;52.10;;
45964;Laerm;31671;48.092;11.842;2023-07-28T11:19:20;30.93;28.46;52.26;;
45964;Laerm;31671;48.092;11.842;2023-07-28T11:21:45;30.99;28.53;50.82;;
45964;Laerm;31671;48.092;11.842;2023-07-28T11:24:11;30.48;28.62;40.90;;
45964;Laerm;31671;48.092;11.842;2023-07-28T11:26:37;30.01;28.54;38.26;;
45964;Laerm;31671;48.092;11.842;2023-07-28T11:29:03;30.28;28.31;44.32;;
45964;Laerm;31671;48.092;11.842;2023-07-28T11:31:29;30.35;28.61;50.11;;
45964;Laerm;31671;48.092;11.842;2023-07-28T11:33:55;34.05;28.51;58.53;;
45964;Laerm;31671;48.092;11.842;2023-07-28T11:36:24;34.89;28.68;60.15;;
45964;Laerm;31671;48.092;11.842;2023-07-28T11:38:51;31.06;28.63;50.52;;
45964;Laerm;31671;48.092;11.842;2023-07-28T11:41:17;30.65;28.26;47.54;;
45964;Laerm;31671;48.092;11.842;2023-07-28T11:43:43;30.47;28.78;40.05;;
45964;Laerm;31671;48.092;11.842;2023-07-28T11:48:53;32.69;28.59;54.57;;
45964;Laerm;31671;48.092;11.842;2023-07-28T11:51:31;40.26;28.69;63.67;;
45964;Laerm;31671;48.092;11.842;2023-07-28T11:53:57;31.00;28.47;48.50;;
45964;Laerm;31671;48.092;11.842;2023-07-28T11:56:22;32.35;28.42;53.03;;
45964;Laerm;31671;48.092;11.842;2023-07-28T11:58:52;30.85;28.49;47.50;;
45964;Laerm;31671;48.092;11.842;2023-07-28T12:01:18;31.18;28.48;48.60;;
45964;Laerm;31671;48.092;11.842;2023-07-28T12:03:43;31.52;28.62;54.33;;
45964;Laerm;31671;48.092;11.842;2023-07-28T12:06:09;30.74;28.68;45.94;;
45964;Laerm;31671;48.092;11.842;2023-07-28T12:08:35;30.98;28.52;52.60;;
45964;Laerm;31671;48.092;11.842;2023-07-28T12:11:01;35.58;28.41;59.15;;
45964;Laerm;31671;48.092;11.842;2023-07-28T12:13:26;29.97;28.54;44.26;;
45964;Laerm;31671;48.092;11.842;2023-07-28T12:15:52;30.66;28.33;47.07;;
45964;Laerm;31671;48.092;11.842;2023-07-28T12:18:18;32.36;28.45;53.26;;
45964;Laerm;31671;48.092;11.842;2023-07-28T12:20:44;30.31;28.42;47.15;;
45964;Laerm;31671;48.092;11.842;2023-07-28T12:23:11;30.30;28.24;45.16;;
45964;Laerm;31671;48.092;11.842;2023-07-28T12:25:36;30.34;28.47;44.27;;
45964;Laerm;31671;48.092;11.842;2023-07-28T12:28:02;30.88;28.40;50.47;;
45964;Laerm;31671;48.092;11.842;2023-07-28T12:30:28;31.05;28.55;48.52;;
45964;Laerm;31671;48.092;11.842;2023-07-28T12:32:54;30.52;28.43;49.26;;
45964;Laerm;31671;48.092;11.842;2023-07-28T12:35:20;30.45;28.44;37.17;;
45964;Laerm;31671;48.092;11.842;2023-07-28T12:37:45;30.17;28.52;45.22;;
45964;Laerm;31671;48.092;11.842;2023-07-28T12:40:11;29.89;28.54;33.32;;
45964;Laerm;31671;48.092;11.842;2023-07-28T12:42:37;29.87;28.46;36.45;;
45964;Laerm;31671;48.092;11.842;2023-07-28T12:45:03;30.49;28.52;44.57;;
45964;Laerm;31671;48.092;11.842;2023-07-28T12:47:28;30.56;28.35;46.27;;
45964;Laerm;31671;48.092;11.842;2023-07-28T12:49:54;31.51;28.40;49.95;;
45964;Laerm;31671;48.092;11.842;2023-07-28T12:52:20;30.34;28.50;45.52;;
45964;Laerm;31671;48.092;11.842;2023-07-28T12:54:45;30.98;28.35;55.92;;
45964;Laerm;31671;48.092;11.842;2023-07-28T12:57:11;48.37;28.47;69.22;;
45964;Laerm;31671;48.092;11.842;2023-07-28T12:59:37;30.80;28.58;46.32;;
45964;Laerm;31671;48.092;11.842;2023-07-28T13:02:02;30.44;28.31;44.24;;
45964;Laerm;31671;48.092;11.842;2023-07-28T13:04:28;30.45;28.39;42.69;;
45964;Laerm;31671;48.092;11.842;2023-07-28T13:06:54;30.61;28.40;44.40;;
45964;Laerm;31671;48.092;11.842;2023-07-28T13:09:20;30.35;28.70;37.19;;
45964;Laerm;31671;48.092;11.842;2023-07-28T13:11:45;32.15;28.53;50.01;;
45964;Laerm;31671;48.092;11.842;2023-07-28T13:14:11;30.57;28.40;43.70;;
45964;Laerm;31671;48.092;11.842;2023-07-28T13:16:37;31.42;28.33;51.30;;
45964;Laerm;31671;48.092;11.842;2023-07-28T13:19:02;33.05;28.53;51.37;;
45964;Laerm;31671;48.092;11.842;2023-07-28T13:21:28;30.52;28.54;45.12;;
45964;Laerm;31671;48.092;11.842;2023-07-28T13:23:54;29.86;28.14;37.87;;
45964;Laerm;31671;48.092;11.842;2023-07-28T13:26:20;29.76;28.11;34.95;;
45964;Laerm;31671;48.092;11.842;2023-07-28T13:28:45;29.45;28.11;32.72;;
45964;Laerm;31671;48.092;11.842;2023-07-28T13:31:11;29.47;28.17;37.00;;
45964;Laerm;31671;48.092;11.842;2023-07-28T13:33:37;34.79;28.24;57.53;;
45964;Laerm;31671;48.092;11.842;2023-07-28T13:36:02;30.32;28.25;48.87;;